createdAt,value
2022-11-27T00:02:01.840Z,10.00
2022-11-27T00:07:03.517Z,9.30
2022-11-27T00:12:05.464Z,9.00
2022-11-27T00:17:07.143Z,8.25
2022-11-27T00:22:08.812Z,7.38
2022-11-27T00:27:11.471Z,7.93
2022-11-27T00:32:13.291Z,8.05
2022-11-27T00:37:15.164Z,6.70
2022-11-27T00:42:16.817Z,8.02
2022-11-27T00:47:18.508Z,7.97
2022-11-27T00:52:20.343Z,9.30
2022-11-27T00:57:22.018Z,11.00
2022-11-27T01:02:23.751Z,9.48
2022-11-27T01:07:26.671Z,9.90
2022-11-27T01:12:28.367Z,10.00
2022-11-27T01:17:30.054Z,10.10
2022-11-27T01:22:32.888Z,10.27
2022-11-27T01:27:34.543Z,10.57
2022-11-27T01:32:36.202Z,10.40
2022-11-27T01:37:37.883Z,9.27
2022-11-27T01:42:39.617Z,11.93
2022-11-27T01:48:00.038Z,11.93
2022-11-27T01:53:09.671Z,12.05
2022-11-27T01:58:15.309Z,11.20
2022-11-27T02:03:17.071Z,11.95
2022-11-27T02:08:19.118Z,11.98
2022-11-27T02:13:25.408Z,12.30
2022-11-27T02:18:43.817Z,12.05
2022-11-27T02:24:09.845Z,13.10
2022-11-27T02:29:13.690Z,12.30
2022-11-27T02:34:25.609Z,11.68
2022-11-27T02:39:35.040Z,12.32
2022-11-27T02:44:43.601Z,11.00
2022-11-27T02:49:46.578Z,11.68
2022-11-27T02:54:51.967Z,12.40
2022-11-27T02:59:56.087Z,12.57
2022-11-27T03:05:02.374Z,10.70
2022-11-27T03:10:12.676Z,12.80
2022-11-27T03:15:14.625Z,12.38
2022-11-27T03:20:22.327Z,10.82
2022-11-27T03:25:24.855Z,10.80
2022-11-27T03:30:27.009Z,11.07
2022-11-27T03:35:29.594Z,11.18
2022-11-27T03:40:50.399Z,11.20
2022-11-27T03:46:05.526Z,10.43
2022-11-27T03:51:16.307Z,10.27
2022-11-27T03:56:38.547Z,10.55
2022-11-27T04:01:40.826Z,10.10
2022-11-27T04:06:42.559Z,11.93
2022-11-27T04:11:44.256Z,10.53
2022-11-27T04:16:45.932Z,9.00
2022-11-27T04:21:47.607Z,9.90
2022-11-27T04:26:49.350Z,9.70
2022-11-27T04:31:51.032Z,10.30
2022-11-27T04:36:52.728Z,10.23
2022-11-27T04:41:54.436Z,12.23
2022-11-27T04:46:56.187Z,10.88
2022-11-27T04:51:57.969Z,10.82
2022-11-27T04:56:59.637Z,10.68
2022-11-27T05:02:01.359Z,11.13
2022-11-27T05:07:03.504Z,10.60
2022-11-27T05:12:05.377Z,11.82
2022-11-27T05:17:07.182Z,12.20
2022-11-27T05:22:08.851Z,14.97
2022-11-27T05:27:10.572Z,13.83
2022-11-27T05:32:12.240Z,14.13
2022-11-27T05:37:19.204Z,16.60
2022-11-27T05:42:21.474Z,18.53
2022-11-27T05:47:23.248Z,19.23
2022-11-27T05:52:24.917Z,19.83
2022-11-27T05:57:26.667Z,18.80
2022-11-27T06:02:29.682Z,16.63
2022-11-27T06:07:32.069Z,15.03
2022-11-27T06:12:33.785Z,19.70
2022-11-27T06:17:35.446Z,15.32
2022-11-27T06:22:37.115Z,18.23
2022-11-27T06:27:38.997Z,20.30
2022-11-27T06:32:40.676Z,17.07
2022-11-27T06:37:42.380Z,15.70
2022-11-27T06:42:44.043Z,15.17
2022-11-27T06:47:45.720Z,16.15
2022-11-27T06:52:47.380Z,13.35
2022-11-27T06:57:51.339Z,11.93
2022-11-27T07:02:54.875Z,11.35
2022-11-27T07:07:58.317Z,12.00
2022-11-27T07:13:00.020Z,12.37
2022-11-27T07:18:02.343Z,12.40
2022-11-27T07:23:04.004Z,12.73
2022-11-27T07:28:05.683Z,12.73
2022-11-27T07:33:07.348Z,14.80
2022-11-27T07:38:09.013Z,13.25
2022-11-27T07:43:10.684Z,13.20
2022-11-27T07:48:12.358Z,13.25
2022-11-27T07:53:14.084Z,14.20
2022-11-27T07:58:15.859Z,13.10
2022-11-27T08:03:18.650Z,12.30
2022-11-27T08:08:20.346Z,12.70
2022-11-27T08:13:22.041Z,15.13
2022-11-27T08:18:23.715Z,13.88
2022-11-27T08:23:25.376Z,14.73
2022-11-27T08:28:27.063Z,12.17
2022-11-27T08:33:29.360Z,11.70
2022-11-27T08:38:31.110Z,11.25
2022-11-27T08:43:33.362Z,11.50
2022-11-27T08:48:35.132Z,11.03
2022-11-27T08:53:37.857Z,11.10
2022-11-27T08:58:41.212Z,10.47
2022-11-27T09:03:43.067Z,10.87
2022-11-27T09:08:45.707Z,10.53
2022-11-27T09:13:48.083Z,7.50
2022-11-27T09:18:51.751Z,7.57
2022-11-27T09:23:55.536Z,7.77
2022-11-27T09:28:58.605Z,6.60
2022-11-27T09:34:00.271Z,8.32
2022-11-27T09:39:03.660Z,11.50
2022-11-27T09:44:39.740Z,9.40
2022-11-27T09:49:45.809Z,9.23
2022-11-27T09:55:02.764Z,9.85
2022-11-27T10:00:19.014Z,6.38
2022-11-27T10:05:43.617Z,7.50
2022-11-27T10:11:15.551Z,7.20
2022-11-27T10:17:00.535Z,6.68
2022-11-27T10:22:20.966Z,6.85
2022-11-27T10:27:30.219Z,6.50
2022-11-27T10:38:06.560Z,7.35
2022-11-27T10:43:11.903Z,7.38
2022-11-27T10:48:14.564Z,6.35
2022-11-27T10:53:30.954Z,6.88
2022-11-27T10:58:52.899Z,4.72
2022-11-27T11:04:31.274Z,5.32
2022-11-27T11:09:32.983Z,4.88
2022-11-27T11:14:34.676Z,5.15
2022-11-27T11:19:39.164Z,4.25
2022-11-27T11:24:46.847Z,6.28
2022-11-27T11:29:51.355Z,4.80
2022-11-27T11:35:08.525Z,5.97
2022-11-27T11:40:16.073Z,5.20
2022-11-27T11:45:21.155Z,5.72
2022-11-27T11:50:28.883Z,6.00
2022-11-27T11:55:59.596Z,6.05
2022-11-27T12:01:26.488Z,7.03
2022-11-27T12:06:37.842Z,6.63
2022-11-27T12:11:45.292Z,6.70
2022-11-27T12:17:04.531Z,6.72
2022-11-27T12:22:45.016Z,7.13
2022-11-27T12:27:57.635Z,5.72
2022-11-27T12:33:05.475Z,5.55
2022-11-27T12:38:35.139Z,4.78
2022-11-27T12:43:47.894Z,5.38
2022-11-27T12:49:14.166Z,5.72
2022-11-27T12:54:28.544Z,5.55
2022-11-27T12:59:43.564Z,6.10
2022-11-27T13:05:24.090Z,5.75
2022-11-27T13:10:38.277Z,5.32
2022-11-27T13:15:52.331Z,4.40
2022-11-27T13:20:55.328Z,4.53
2022-11-27T13:25:58.647Z,4.57
2022-11-27T13:31:01.453Z,4.13
2022-11-27T13:36:04.621Z,3.47
2022-11-27T13:41:07.088Z,3.90
2022-11-27T13:46:20.143Z,5.78
2022-11-27T13:51:28.653Z,6.05
2022-11-27T13:56:31.385Z,5.13
2022-11-27T14:01:33.190Z,4.45
2022-11-27T14:06:35.327Z,4.20
2022-11-27T14:11:44.320Z,4.85
2022-11-27T14:16:57.642Z,4.55
2022-11-27T14:21:59.548Z,3.97
2022-11-27T14:27:06.995Z,4.25
2022-11-27T14:32:12.565Z,4.25
2022-11-27T14:37:26.296Z,5.10
2022-11-27T14:42:30.211Z,4.15
2022-11-27T14:47:34.915Z,4.95
2022-11-27T14:52:36.967Z,3.97
2022-11-27T14:57:38.814Z,6.10
2022-11-27T15:02:40.651Z,5.60
2022-11-27T15:07:47.902Z,6.40
2022-11-27T15:12:52.320Z,6.95
2022-11-27T15:18:00.199Z,6.68
2022-11-27T15:23:02.793Z,5.85
2022-11-27T15:28:23.725Z,5.38
2022-11-27T15:33:33.460Z,6.47
2022-11-27T15:38:35.184Z,6.47
2022-11-27T15:43:36.855Z,4.97
2022-11-27T15:48:38.564Z,5.00
2022-11-27T15:53:40.345Z,5.93
2022-11-27T15:58:42.450Z,6.15
2022-11-27T16:03:44.132Z,5.50
2022-11-27T16:08:45.817Z,6.18
2022-11-27T16:13:47.479Z,5.03
2022-11-27T16:18:49.159Z,6.00
2022-11-27T16:23:50.859Z,7.20
2022-11-27T16:28:52.558Z,7.78
2022-11-27T16:33:55.190Z,8.43
2022-11-27T16:38:59.416Z,8.90
2022-11-27T16:44:02.306Z,9.90
2022-11-27T16:49:06.534Z,10.10
2022-11-27T16:54:11.424Z,9.60
2022-11-27T16:59:15.649Z,10.82
2022-11-27T17:04:19.939Z,11.63
2022-11-27T17:09:24.720Z,11.70
2022-11-27T17:14:27.505Z,9.77
2022-11-27T17:19:31.697Z,10.43
2022-11-27T17:24:35.846Z,10.10
2022-11-27T17:29:39.395Z,10.15
2022-11-27T17:34:41.429Z,10.70
2022-11-27T17:39:44.383Z,11.35
2022-11-27T17:44:47.458Z,10.33
2022-11-27T17:49:49.216Z,16.42
2022-11-27T17:54:50.975Z,13.75
2022-11-27T17:59:53.007Z,14.85
2022-11-27T18:04:54.753Z,18.20
2022-11-27T18:09:57.197Z,16.83
2022-11-27T18:15:01.436Z,15.95
2022-11-27T18:20:04.798Z,16.33
2022-11-27T18:25:06.663Z,16.77
2022-11-27T18:30:09.163Z,17.45
2022-11-27T18:35:11.017Z,16.92
2022-11-27T18:40:13.010Z,17.02
2022-11-27T18:45:31.708Z,16.83
2022-11-27T18:50:35.624Z,16.35
2022-11-27T18:55:37.618Z,18.58
2022-11-27T19:00:39.482Z,19.67
2022-11-27T19:05:41.160Z,20.33
2022-11-27T19:10:42.861Z,19.17
2022-11-27T19:15:46.664Z,19.33
2022-11-27T19:20:48.400Z,21.25
2022-11-27T19:25:51.105Z,23.60
2022-11-27T19:30:52.916Z,27.08
2022-11-27T19:36:00.146Z,26.00
2022-11-27T19:41:04.346Z,24.63
2022-11-27T19:46:19.909Z,25.60
2022-11-27T19:51:21.789Z,24.30
2022-11-27T19:56:27.069Z,23.00
2022-11-27T20:01:29.323Z,23.65
2022-11-27T20:06:31.279Z,21.07
2022-11-27T20:11:35.201Z,23.67
2022-11-27T20:16:38.833Z,25.00
2022-11-27T20:21:40.670Z,26.33
2022-11-27T20:26:43.363Z,24.27
2022-11-27T20:31:45.593Z,25.17
2022-11-27T20:36:48.075Z,25.02
2022-11-27T20:41:51.422Z,22.70
2022-11-27T20:46:53.134Z,24.05
2022-11-27T20:51:55.425Z,24.50
2022-11-27T20:56:57.682Z,22.27
2022-11-27T21:02:01.576Z,25.17
2022-11-27T21:07:03.783Z,23.30
2022-11-27T21:12:06.449Z,27.25
2022-11-27T21:17:08.474Z,25.05
2022-11-27T21:22:10.323Z,26.87
2022-11-27T21:27:12.235Z,28.15
2022-11-27T21:32:14.375Z,27.27
2022-11-27T21:37:16.340Z,26.80
2022-11-27T21:42:18.708Z,27.97
2022-11-27T21:47:20.473Z,30.02
2022-11-27T21:52:22.161Z,29.20
2022-11-27T21:57:24.036Z,27.33
2022-11-27T22:02:25.865Z,28.05
2022-11-27T22:07:27.626Z,26.55
2022-11-27T22:12:30.497Z,26.60
2022-11-27T22:17:33.123Z,23.97
2022-11-27T22:22:34.902Z,26.63
2022-11-27T22:27:37.298Z,23.93
2022-11-27T22:32:38.994Z,25.08
2022-11-27T22:37:40.760Z,26.27
2022-11-27T22:42:42.426Z,24.13
2022-11-27T22:47:44.120Z,24.60
2022-11-27T22:52:45.850Z,25.13
2022-11-27T22:57:47.847Z,23.13
2022-11-27T23:02:49.623Z,25.37
2022-11-27T23:07:51.443Z,24.85
2022-11-27T23:12:53.302Z,25.60
2022-11-27T23:17:54.978Z,30.33
2022-11-27T23:22:56.673Z,28.77
2022-11-27T23:27:58.346Z,33.60
2022-11-27T23:33:00.123Z,29.47
2022-11-27T23:38:01.845Z,29.47
2022-11-27T23:43:03.517Z,27.67
2022-11-27T23:48:05.286Z,30.17
2022-11-27T23:53:07.021Z,29.42
2022-11-27T23:58:08.690Z,30.75
